createdAt,value
2023-04-16T00:00:19.716Z,1015
2023-04-16T00:15:19.223Z,1015.1
2023-04-16T00:30:18.935Z,1015.1
2023-04-16T00:45:19.026Z,1015.1
2023-04-16T01:00:19.635Z,1015.1
2023-04-16T01:15:19.287Z,1015.1
2023-04-16T01:30:19.431Z,1015.2
2023-04-16T01:45:19.173Z,1015.4
2023-04-16T02:00:18.900Z,1015.4
2023-04-16T02:15:18.951Z,1015.4
2023-04-16T02:30:19.533Z,1015.5
2023-04-16T02:45:19.508Z,1015.6
2023-04-16T03:00:19.840Z,1015.6
2023-04-16T03:15:19.560Z,1015.7
2023-04-16T03:30:18.922Z,1015.7
2023-04-16T03:45:19.114Z,1015.8
2023-04-16T04:02:36.394Z,1015.7
2023-04-16T04:15:19.252Z,1015.8
2023-04-16T04:30:19.233Z,1015.9
2023-04-16T04:45:19.615Z,1016
2023-04-16T05:00:19.369Z,1016.1
2023-04-16T05:15:25.492Z,1016.1
2023-04-16T05:30:18.773Z,1016.3
2023-04-16T05:45:19.289Z,1016.5
2023-04-16T06:00:20.186Z,1016.6
2023-04-16T06:15:19.217Z,1016.8
2023-04-16T06:30:19.227Z,1016.8
2023-04-16T06:45:19.047Z,1016.9
2023-04-16T07:00:19.112Z,1017.1
2023-04-16T07:15:18.971Z,1017.1
2023-04-16T07:30:19.011Z,1017.2
2023-04-16T07:45:19.311Z,1017.3
2023-04-16T08:00:19.001Z,1017.4
2023-04-16T08:15:19.002Z,1017.6
2023-04-16T08:30:19.270Z,1017.7
2023-04-16T08:45:19.260Z,1017.8
2023-04-16T09:00:19.510Z,1017.9
2023-04-16T09:15:19.096Z,1018
2023-04-16T09:30:19.626Z,1018.1
2023-04-16T09:45:27.123Z,1018.3
2023-04-16T10:00:19.672Z,1018.4
2023-04-16T10:15:19.592Z,1018.5
2023-04-16T10:30:19.783Z,1018.6
2023-04-16T10:45:19.916Z,1018.7
2023-04-16T11:00:19.329Z,1018.8
2023-04-16T11:15:19.430Z,1018.8
2023-04-16T11:30:19.890Z,1018.9
2023-04-16T11:45:19.855Z,1019
2023-04-16T12:00:25.150Z,1019
2023-04-16T12:15:19.250Z,1019.1
2023-04-16T12:30:19.728Z,1019.2
2023-04-16T12:45:19.726Z,1019.2
2023-04-16T13:00:19.949Z,1019.2
2023-04-16T13:15:18.916Z,1019.2
2023-04-16T13:30:18.966Z,1019.2
2023-04-16T13:45:20.213Z,1019.2
2023-04-16T14:00:19.246Z,1019.2
2023-04-16T14:15:19.024Z,1019.2
2023-04-16T14:30:19.220Z,1019.2
2023-04-16T14:45:19.256Z,1019.2
2023-04-16T15:00:19.104Z,1019.3
2023-04-16T15:15:19.481Z,1019.3
2023-04-16T15:30:22.139Z,1019.5
2023-04-16T15:45:18.943Z,1019.5
2023-04-16T16:00:19.357Z,1019.6
2023-04-16T16:15:19.173Z,1019.6
2023-04-16T16:30:19.317Z,1019.7
2023-04-16T16:45:19.544Z,1019.6
2023-04-16T17:00:20.102Z,1019.7
2023-04-16T17:15:22.191Z,1019.8
2023-04-16T17:30:19.728Z,1019.9
2023-04-16T17:45:19.361Z,1020.1
2023-04-16T18:00:19.216Z,1020.2
2023-04-16T18:15:18.843Z,1020.3
2023-04-16T18:30:26.886Z,1020.5
2023-04-16T18:45:22.332Z,1020.6
2023-04-16T19:00:19.623Z,1020.8
2023-04-16T19:15:18.977Z,1021
2023-04-16T19:30:19.712Z,1021
2023-04-16T19:45:19.110Z,1021.1
2023-04-16T20:00:20.171Z,1021.2
2023-04-16T20:15:19.109Z,1021.2
2023-04-16T20:30:18.823Z,1021.3
2023-04-16T20:45:19.301Z,1021.3
2023-04-16T21:00:20.032Z,1021.3
2023-04-16T21:15:19.097Z,1021.4
2023-04-16T21:30:19.400Z,1021.4
2023-04-16T21:45:19.724Z,1021.4
2023-04-16T22:00:19.846Z,1021.4
2023-04-16T22:15:18.852Z,1021.4
2023-04-16T22:30:18.766Z,1021.4
2023-04-16T22:45:19.061Z,1021.4
2023-04-16T23:00:19.023Z,1021.5
2023-04-16T23:15:18.812Z,1021.4
2023-04-16T23:30:19.422Z,1021.4
2023-04-16T23:45:19.595Z,1021.4
